Reese AFB, Texas
Current Conditions -  °F | °C
As of 5:53 PM on Saturday 25 Oct 2014 (Local Time) from KLBB Reporting Station
Clear Clear  
Wind Chill: 83°   Ceiling: Unl
Heat Index: 83°   Visibility: 10mi
Dew Point: 50°   Wind: 12mph
Humidity: 32%   Direction: 200°SSW
Pressure: 30.1"   Gusts: NA
Location:  33.59°N, 102.03°W
Report Text: KLBB 252253Z 20010KT 10SM CLR 28/10 A3010 RMK AO2 SLP153 T02830100 $
Loading
Personal Weather Stations






























Interactive Weather Map New forecast layout! Learn more

10-Day Weather Forecast

Advertisements
Track Severe Weather on mobile